sensor_id;sensor_type;location;lat;lon;timestamp;temperature;humidity
22456;DHT22;11395;53.204;6.502;2023-05-02T00:01:17;23.60;58.50
22456;DHT22;11395;53.204;6.502;2023-05-02T00:03:43;23.60;58.50
22456;DHT22;11395;53.204;6.502;2023-05-02T00:06:10;23.60;58.50
22456;DHT22;11395;53.204;6.502;2023-05-02T00:08:36;23.50;58.50
22456;DHT22;11395;53.204;6.502;2023-05-02T00:11:03;23.60;58.60
22456;DHT22;11395;53.204;6.502;2023-05-02T00:13:30;23.50;59.30
22456;DHT22;11395;53.204;6.502;2023-05-02T00:15:56;23.50;58.60
22456;DHT22;11395;53.204;6.502;2023-05-02T00:18:22;23.50;58.60
22456;DHT22;11395;53.204;6.502;2023-05-02T00:20:49;23.40;58.50
22456;DHT22;11395;53.204;6.502;2023-05-02T00:23:15;23.40;58.50
22456;DHT22;11395;53.204;6.502;2023-05-02T00:25:45;23.40;58.60
22456;DHT22;11395;53.204;6.502;2023-05-02T00:28:11;23.40;58.60
22456;DHT22;11395;53.204;6.502;2023-05-02T00:30:43;23.40;58.70
22456;DHT22;11395;53.204;6.502;2023-05-02T00:33:10;23.40;58.80
22456;DHT22;11395;53.204;6.502;2023-05-02T00:35:37;23.30;58.80
22456;DHT22;11395;53.204;6.502;2023-05-02T00:38:03;23.30;58.80
22456;DHT22;11395;53.204;6.502;2023-05-02T00:40:31;23.30;58.90
22456;DHT22;11395;53.204;6.502;2023-05-02T00:42:57;23.30;58.90
22456;DHT22;11395;53.204;6.502;2023-05-02T00:45:23;23.30;58.90
22456;DHT22;11395;53.204;6.502;2023-05-02T00:47:49;23.20;58.80
22456;DHT22;11395;53.204;6.502;2023-05-02T00:50:16;23.20;58.80
22456;DHT22;11395;53.204;6.502;2023-05-02T00:52:43;23.20;58.80
22456;DHT22;11395;53.204;6.502;2023-05-02T00:55:09;23.20;58.90
22456;DHT22;11395;53.204;6.502;2023-05-02T00:57:35;23.10;58.90
22456;DHT22;11395;53.204;6.502;2023-05-02T01:00:02;23.10;58.90
22456;DHT22;11395;53.204;6.502;2023-05-02T01:02:38;23.10;59.10
22456;DHT22;11395;53.204;6.502;2023-05-02T01:05:15;23.10;59.00
22456;DHT22;11395;53.204;6.502;2023-05-02T01:13:12;23.00;59.10
22456;DHT22;11395;53.204;6.502;2023-05-02T01:15:40;23.00;59.20
22456;DHT22;11395;53.204;6.502;2023-05-02T01:18:08;23.00;59.10
22456;DHT22;11395;53.204;6.502;2023-05-02T01:20:39;22.90;59.10
22456;DHT22;11395;53.204;6.502;2023-05-02T01:28:56;22.90;59.20
22456;DHT22;11395;53.204;6.502;2023-05-02T01:31:31;22.80;59.30
22456;DHT22;11395;53.204;6.502;2023-05-02T01:33:59;22.80;59.30
22456;DHT22;11395;53.204;6.502;2023-05-02T01:36:29;22.80;59.40
22456;DHT22;11395;53.204;6.502;2023-05-02T01:38:57;22.80;59.50
22456;DHT22;11395;53.204;6.502;2023-05-02T01:41:30;22.70;59.40
22456;DHT22;11395;53.204;6.502;2023-05-02T01:43:59;22.70;59.50
22456;DHT22;11395;53.204;6.502;2023-05-02T01:46:35;22.70;59.50
22456;DHT22;11395;53.204;6.502;2023-05-02T01:49:05;22.70;59.50
22456;DHT22;11395;53.204;6.502;2023-05-02T01:51:33;22.60;59.40
22456;DHT22;11395;53.204;6.502;2023-05-02T01:54:03;22.60;59.40
22456;DHT22;11395;53.204;6.502;2023-05-02T01:56:34;22.60;59.40
22456;DHT22;11395;53.204;6.502;2023-05-02T01:59:05;22.60;59.60
22456;DHT22;11395;53.204;6.502;2023-05-02T02:01:35;22.60;59.60
22456;DHT22;11395;53.204;6.502;2023-05-02T02:04:03;22.50;59.50
22456;DHT22;11395;53.204;6.502;2023-05-02T02:06:31;22.50;59.60
22456;DHT22;11395;53.204;6.502;2023-05-02T02:08:58;22.50;59.60
22456;DHT22;11395;53.204;6.502;2023-05-02T02:11:34;22.50;59.60
22456;DHT22;11395;53.204;6.502;2023-05-02T02:14:05;22.50;59.60
22456;DHT22;11395;53.204;6.502;2023-05-02T02:16:33;22.40;59.60
22456;DHT22;11395;53.204;6.502;2023-05-02T02:19:06;22.40;59.50
22456;DHT22;11395;53.204;6.502;2023-05-02T02:21:34;22.40;59.50
22456;DHT22;11395;53.204;6.502;2023-05-02T02:24:03;22.40;59.60
22456;DHT22;11395;53.204;6.502;2023-05-02T02:26:31;22.40;59.60
22456;DHT22;11395;53.204;6.502;2023-05-02T02:28:59;22.40;59.60
22456;DHT22;11395;53.204;6.502;2023-05-02T02:31:33;22.30;60.40
22456;DHT22;11395;53.204;6.502;2023-05-02T02:34:00;22.30;60.40
22456;DHT22;11395;53.204;6.502;2023-05-02T02:36:57;22.30;59.70
22456;DHT22;11395;53.204;6.502;2023-05-02T02:42:36;22.30;59.70
22456;DHT22;11395;53.204;6.502;2023-05-02T02:45:29;22.20;59.70
22456;DHT22;11395;53.204;6.502;2023-05-02T02:51:07;22.20;59.70
22456;DHT22;11395;53.204;6.502;2023-05-02T02:56:25;22.20;59.80
22456;DHT22;11395;53.204;6.502;2023-05-02T02:59:22;22.10;59.80
22456;DHT22;11395;53.204;6.502;2023-05-02T03:02:05;22.10;59.70
22456;DHT22;11395;53.204;6.502;2023-05-02T03:04:33;22.10;59.70
22456;DHT22;11395;53.204;6.502;2023-05-02T03:07:00;22.10;59.80
22456;DHT22;11395;53.204;6.502;2023-05-02T03:09:40;22.00;59.70
22456;DHT22;11395;53.204;6.502;2023-05-02T03:12:08;22.00;59.80
22456;DHT22;11395;53.204;6.502;2023-05-02T03:14:36;22.00;59.70
22456;DHT22;11395;53.204;6.502;2023-05-02T03:17:03;22.00;59.80
22456;DHT22;11395;53.204;6.502;2023-05-02T03:19:29;22.00;59.70
22456;DHT22;11395;53.204;6.502;2023-05-02T03:21:56;22.00;59.60
22456;DHT22;11395;53.204;6.502;2023-05-02T03:24:22;21.90;59.60
22456;DHT22;11395;53.204;6.502;2023-05-02T03:26:49;21.90;59.60
22456;DHT22;11395;53.204;6.502;2023-05-02T03:29:20;21.90;59.60
22456;DHT22;11395;53.204;6.502;2023-05-02T03:31:47;21.90;59.60
22456;DHT22;11395;53.204;6.502;2023-05-02T03:34:13;21.90;59.70
22456;DHT22;11395;53.204;6.502;2023-05-02T03:36:40;21.90;59.70
22456;DHT22;11395;53.204;6.502;2023-05-02T03:39:06;21.90;59.80
22456;DHT22;11395;53.204;6.502;2023-05-02T03:41:32;21.80;59.60
22456;DHT22;11395;53.204;6.502;2023-05-02T03:44:04;21.80;59.70
22456;DHT22;11395;53.204;6.502;2023-05-02T03:46:31;21.80;59.60
22456;DHT22;11395;53.204;6.502;2023-05-02T03:48:57;21.90;59.50
22456;DHT22;11395;53.204;6.502;2023-05-02T03:51:24;21.90;59.50
22456;DHT22;11395;53.204;6.502;2023-05-02T03:53:53;21.90;59.40
22456;DHT22;11395;53.204;6.502;2023-05-02T03:56:19;22.00;59.30
22456;DHT22;11395;53.204;6.502;2023-05-02T03:58:52;22.00;59.30
22456;DHT22;11395;53.204;6.502;2023-05-02T04:01:22;22.10;59.30
22456;DHT22;11395;53.204;6.502;2023-05-02T04:03:51;22.20;59.20
22456;DHT22;11395;53.204;6.502;2023-05-02T04:06:19;22.20;59.20
22456;DHT22;11395;53.204;6.502;2023-05-02T04:08:51;22.30;59.20
22456;DHT22;11395;53.204;6.502;2023-05-02T04:11:18;22.40;59.00
22456;DHT22;11395;53.204;6.502;2023-05-02T04:13:44;22.50;59.00
22456;DHT22;11395;53.204;6.502;2023-05-02T04:16:11;22.60;58.80
22456;DHT22;11395;53.204;6.502;2023-05-02T04:18:38;22.70;58.60
22456;DHT22;11395;53.204;6.502;2023-05-02T04:21:07;22.80;58.50
22456;DHT22;11395;53.204;6.502;2023-05-02T04:23:36;22.80;58.40
22456;DHT22;11395;53.204;6.502;2023-05-02T04:26:03;22.90;58.40
22456;DHT22;11395;53.204;6.502;2023-05-02T04:28:46;23.00;58.20
22456;DHT22;11395;53.204;6.502;2023-05-02T04:31:14;23.10;58.10
22456;DHT22;11395;53.204;6.502;2023-05-02T04:33:41;23.10;58.00
22456;DHT22;11395;53.204;6.502;2023-05-02T04:36:09;23.10;58.60
22456;DHT22;11395;53.204;6.502;2023-05-02T04:38:37;23.20;57.90
22456;DHT22;11395;53.204;6.502;2023-05-02T04:41:03;23.20;57.90
22456;DHT22;11395;53.204;6.502;2023-05-02T04:43:37;23.20;57.60
22456;DHT22;11395;53.204;6.502;2023-05-02T04:46:04;23.30;57.70
22456;DHT22;11395;53.204;6.502;2023-05-02T04:48:35;23.30;57.60
22456;DHT22;11395;53.204;6.502;2023-05-02T04:51:01;23.40;57.60
22456;DHT22;11395;53.204;6.502;2023-05-02T04:53:29;23.40;57.50
22456;DHT22;11395;53.204;6.502;2023-05-02T04:55:55;23.40;57.50
22456;DHT22;11395;53.204;6.502;2023-05-02T04:58:22;23.50;57.40
22456;DHT22;11395;53.204;6.502;2023-05-02T05:00:56;23.60;57.40
22456;DHT22;11395;53.204;6.502;2023-05-02T05:03:24;23.70;57.40
22456;DHT22;11395;53.204;6.502;2023-05-02T05:05:50;23.80;57.00
22456;DHT22;11395;53.204;6.502;2023-05-02T05:08:18;23.90;56.80
22456;DHT22;11395;53.204;6.502;2023-05-02T05:10:45;23.90;56.80
22456;DHT22;11395;53.204;6.502;2023-05-02T05:13:11;24.00;56.80
22456;DHT22;11395;53.204;6.502;2023-05-02T05:15:40;24.10;56.50
22456;DHT22;11395;53.204;6.502;2023-05-02T05:18:06;24.10;56.40
22456;DHT22;11395;53.204;6.502;2023-05-02T05:20:33;24.20;56.50
22456;DHT22;11395;53.204;6.502;2023-05-02T05:23:01;24.20;56.30
22456;DHT22;11395;53.204;6.502;2023-05-02T05:25:28;24.30;56.30
22456;DHT22;11395;53.204;6.502;2023-05-02T05:27:55;24.30;56.50
22456;DHT22;11395;53.204;6.502;2023-05-02T05:30:22;24.30;56.30
22456;DHT22;11395;53.204;6.502;2023-05-02T05:32:50;24.40;56.30
22456;DHT22;11395;53.204;6.502;2023-05-02T05:35:16;24.40;56.30
22456;DHT22;11395;53.204;6.502;2023-05-02T05:37:43;24.40;56.00
22456;DHT22;11395;53.204;6.502;2023-05-02T05:40:12;24.40;55.70
22456;DHT22;11395;53.204;6.502;2023-05-02T05:42:41;24.40;55.90
22456;DHT22;11395;53.204;6.502;2023-05-02T05:45:14;24.40;55.70
22456;DHT22;11395;53.204;6.502;2023-05-02T05:47:42;24.40;55.80
22456;DHT22;11395;53.204;6.502;2023-05-02T05:50:09;24.40;55.90
22456;DHT22;11395;53.204;6.502;2023-05-02T05:52:36;24.50;55.80
22456;DHT22;11395;53.204;6.502;2023-05-02T05:55:03;24.50;55.80
22456;DHT22;11395;53.204;6.502;2023-05-02T05:57:31;24.50;55.70
22456;DHT22;11395;53.204;6.502;2023-05-02T05:59:57;24.50;55.60
22456;DHT22;11395;53.204;6.502;2023-05-02T06:02:23;24.50;55.60
22456;DHT22;11395;53.204;6.502;2023-05-02T06:04:50;24.50;55.70
22456;DHT22;11395;53.204;6.502;2023-05-02T06:07:19;24.50;55.60
22456;DHT22;11395;53.204;6.502;2023-05-02T06:09:45;24.50;55.60
22456;DHT22;11395;53.204;6.502;2023-05-02T06:12:13;24.50;55.50
22456;DHT22;11395;53.204;6.502;2023-05-02T06:14:41;24.50;55.40
22456;DHT22;11395;53.204;6.502;2023-05-02T06:17:08;24.50;55.50
22456;DHT22;11395;53.204;6.502;2023-05-02T06:19:34;24.50;55.60
22456;DHT22;11395;53.204;6.502;2023-05-02T06:22:01;24.50;55.50
22456;DHT22;11395;53.204;6.502;2023-05-02T06:24:27;24.50;55.50
22456;DHT22;11395;53.204;6.502;2023-05-02T06:26:53;24.50;55.50
22456;DHT22;11395;53.204;6.502;2023-05-02T06:29:19;24.60;55.60
22456;DHT22;11395;53.204;6.502;2023-05-02T06:31:46;24.60;55.50
22456;DHT22;11395;53.204;6.502;2023-05-02T06:34:12;24.60;55.50
22456;DHT22;11395;53.204;6.502;2023-05-02T06:36:38;24.70;55.40
22456;DHT22;11395;53.204;6.502;2023-05-02T06:39:04;24.70;55.40
22456;DHT22;11395;53.204;6.502;2023-05-02T06:41:31;24.70;55.30
22456;DHT22;11395;53.204;6.502;2023-05-02T06:43:57;24.80;55.20
22456;DHT22;11395;53.204;6.502;2023-05-02T06:46:27;24.80;55.10
22456;DHT22;11395;53.204;6.502;2023-05-02T06:48:54;24.90;55.00
22456;DHT22;11395;53.204;6.502;2023-05-02T06:51:20;24.90;55.10
22456;DHT22;11395;53.204;6.502;2023-05-02T06:53:47;24.90;54.90
22456;DHT22;11395;53.204;6.502;2023-05-02T06:56:13;24.90;54.80
22456;DHT22;11395;53.204;6.502;2023-05-02T06:58:39;24.90;54.70
22456;DHT22;11395;53.204;6.502;2023-05-02T07:01:06;25.00;54.80
22456;DHT22;11395;53.204;6.502;2023-05-02T07:03:32;25.00;54.60
22456;DHT22;11395;53.204;6.502;2023-05-02T07:05:58;25.00;54.60
22456;DHT22;11395;53.204;6.502;2023-05-02T07:08:24;25.00;54.50
22456;DHT22;11395;53.204;6.502;2023-05-02T07:10:50;25.00;54.50
22456;DHT22;11395;53.204;6.502;2023-05-02T07:13:17;25.00;54.50
22456;DHT22;11395;53.204;6.502;2023-05-02T07:15:43;24.90;54.10
22456;DHT22;11395;53.204;6.502;2023-05-02T07:18:09;24.90;54.20
22456;DHT22;11395;53.204;6.502;2023-05-02T07:20:35;24.90;54.20
22456;DHT22;11395;53.204;6.502;2023-05-02T07:23:03;24.90;54.10
22456;DHT22;11395;53.204;6.502;2023-05-02T07:25:29;24.80;54.10
22456;DHT22;11395;53.204;6.502;2023-05-02T07:27:56;24.80;54.00
22456;DHT22;11395;53.204;6.502;2023-05-02T07:30:22;24.70;54.00
22456;DHT22;11395;53.204;6.502;2023-05-02T07:32:48;24.70;54.00
22456;DHT22;11395;53.204;6.502;2023-05-02T07:35:15;24.70;54.10
22456;DHT22;11395;53.204;6.502;2023-05-02T07:37:44;24.70;54.10
22456;DHT22;11395;53.204;6.502;2023-05-02T07:40:11;24.60;54.30
22456;DHT22;11395;53.204;6.502;2023-05-02T07:42:43;24.60;55.50
22456;DHT22;11395;53.204;6.502;2023-05-02T07:45:12;24.60;55.60
22456;DHT22;11395;53.204;6.502;2023-05-02T07:47:39;24.00;53.80
22456;DHT22;11395;53.204;6.502;2023-05-02T07:50:10;24.70;55.20
22456;DHT22;11395;53.204;6.502;2023-05-02T07:52:36;25.30;54.30
22456;DHT22;11395;53.204;6.502;2023-05-02T07:55:03;24.80;55.30
22456;DHT22;11395;53.204;6.502;2023-05-02T07:57:30;24.80;55.10
22456;DHT22;11395;53.204;6.502;2023-05-02T08:00:02;24.90;55.70
22456;DHT22;11395;53.204;6.502;2023-05-02T08:02:40;23.80;53.40
22456;DHT22;11395;53.204;6.502;2023-05-02T08:05:07;24.90;54.40
22456;DHT22;11395;53.204;6.502;2023-05-02T08:07:34;24.90;55.50
22456;DHT22;11395;53.204;6.502;2023-05-02T08:10:00;25.00;55.20
22456;DHT22;11395;53.204;6.502;2023-05-02T08:12:27;25.00;55.30
22456;DHT22;11395;53.204;6.502;2023-05-02T08:14:53;25.00;54.60
22456;DHT22;11395;53.204;6.502;2023-05-02T08:17:19;25.00;55.60
22456;DHT22;11395;53.204;6.502;2023-05-02T08:19:46;26.20;55.70
22456;DHT22;11395;53.204;6.502;2023-05-02T08:22:13;25.10;55.30
22456;DHT22;11395;53.204;6.502;2023-05-02T08:24:39;25.10;54.30
22456;DHT22;11395;53.204;6.502;2023-05-02T08:27:05;25.20;54.30
22456;DHT22;11395;53.204;6.502;2023-05-02T08:29:31;25.30;54.10
22456;DHT22;11395;53.204;6.502;2023-05-02T08:31:58;25.30;54.00
22456;DHT22;11395;53.204;6.502;2023-05-02T08:34:24;25.30;54.30
22456;DHT22;11395;53.204;6.502;2023-05-02T08:36:51;25.40;54.00
22456;DHT22;11395;53.204;6.502;2023-05-02T08:39:17;25.50;53.80
22456;DHT22;11395;53.204;6.502;2023-05-02T08:41:43;25.50;53.80
22456;DHT22;11395;53.204;6.502;2023-05-02T08:44:11;25.50;53.70
22456;DHT22;11395;53.204;6.502;2023-05-02T08:46:40;25.50;53.40
22456;DHT22;11395;53.204;6.502;2023-05-02T08:49:09;25.50;53.30
22456;DHT22;11395;53.204;6.502;2023-05-02T08:51:37;25.60;53.30
22456;DHT22;11395;53.204;6.502;2023-05-02T08:54:05;25.60;53.20
22456;DHT22;11395;53.204;6.502;2023-05-02T08:56:34;25.50;53.00
22456;DHT22;11395;53.204;6.502;2023-05-02T08:59:01;25.50;52.90
22456;DHT22;11395;53.204;6.502;2023-05-02T09:01:29;25.40;53.10
22456;DHT22;11395;53.204;6.502;2023-05-02T09:03:56;25.30;52.90
22456;DHT22;11395;53.204;6.502;2023-05-02T09:06:25;25.30;53.20
22456;DHT22;11395;53.204;6.502;2023-05-02T09:08:52;25.20;53.10
22456;DHT22;11395;53.204;6.502;2023-05-02T09:11:19;25.10;53.20
22456;DHT22;11395;53.204;6.502;2023-05-02T09:13:47;25.10;53.30
22456;DHT22;11395;53.204;6.502;2023-05-02T09:16:15;25.00;53.40
22456;DHT22;11395;53.204;6.502;2023-05-02T09:18:42;25.00;53.30
22456;DHT22;11395;53.204;6.502;2023-05-02T09:21:17;24.90;53.50
22456;DHT22;11395;53.204;6.502;2023-05-02T09:23:56;24.90;53.70
22456;DHT22;11395;53.204;6.502;2023-05-02T09:26:28;24.80;53.80
22456;DHT22;11395;53.204;6.502;2023-05-02T09:28:58;24.80;54.00
22456;DHT22;11395;53.204;6.502;2023-05-02T09:31:32;24.80;53.90
22456;DHT22;11395;53.204;6.502;2023-05-02T09:34:09;24.90;54.00
22456;DHT22;11395;53.204;6.502;2023-05-02T09:36:40;24.80;53.90
22456;DHT22;11395;53.204;6.502;2023-05-02T09:39:12;24.80;53.90
22456;DHT22;11395;53.204;6.502;2023-05-02T09:41:41;24.90;54.00
22456;DHT22;11395;53.204;6.502;2023-05-02T09:44:12;24.90;53.90
22456;DHT22;11395;53.204;6.502;2023-05-02T09:46:40;24.80;53.80
22456;DHT22;11395;53.204;6.502;2023-05-02T09:49:07;24.80;53.80
22456;DHT22;11395;53.204;6.502;2023-05-02T09:51:36;24.80;54.40
22456;DHT22;11395;53.204;6.502;2023-05-02T09:54:03;24.80;53.80
22456;DHT22;11395;53.204;6.502;2023-05-02T09:56:55;24.70;54.00
22456;DHT22;11395;53.204;6.502;2023-05-02T09:59:22;24.70;54.10
22456;DHT22;11395;53.204;6.502;2023-05-02T10:02:05;24.70;53.80
22456;DHT22;11395;53.204;6.502;2023-05-02T10:04:33;24.70;53.80
22456;DHT22;11395;53.204;6.502;2023-05-02T10:07:01;24.70;53.80
22456;DHT22;11395;53.204;6.502;2023-05-02T10:09:29;24.70;54.00
22456;DHT22;11395;53.204;6.502;2023-05-02T10:12:01;24.70;53.90
22456;DHT22;11395;53.204;6.502;2023-05-02T10:14:39;24.70;53.90
22456;DHT22;11395;53.204;6.502;2023-05-02T10:17:13;24.60;53.70
22456;DHT22;11395;53.204;6.502;2023-05-02T10:19:42;24.60;53.80
22456;DHT22;11395;53.204;6.502;2023-05-02T10:22:11;24.60;53.90
22456;DHT22;11395;53.204;6.502;2023-05-02T10:24:39;24.60;53.70
22456;DHT22;11395;53.204;6.502;2023-05-02T10:27:06;24.70;53.80
22456;DHT22;11395;53.204;6.502;2023-05-02T10:29:33;24.60;53.60
22456;DHT22;11395;53.204;6.502;2023-05-02T10:32:00;24.60;53.60
22456;DHT22;11395;53.204;6.502;2023-05-02T10:34:31;24.60;53.90
22456;DHT22;11395;53.204;6.502;2023-05-02T10:36:57;24.60;53.70
22456;DHT22;11395;53.204;6.502;2023-05-02T10:39:28;24.60;53.70
22456;DHT22;11395;53.204;6.502;2023-05-02T10:41:56;24.60;53.70
22456;DHT22;11395;53.204;6.502;2023-05-02T10:44:38;24.60;53.50
22456;DHT22;11395;53.204;6.502;2023-05-02T10:47:17;24.60;53.80
22456;DHT22;11395;53.204;6.502;2023-05-02T10:49:58;24.70;53.90
22456;DHT22;11395;53.204;6.502;2023-05-02T10:52:26;24.70;53.90
22456;DHT22;11395;53.204;6.502;2023-05-02T11:00:28;25.00;53.70
22456;DHT22;11395;53.204;6.502;2023-05-02T11:02:55;25.10;53.60
22456;DHT22;11395;53.204;6.502;2023-05-02T11:05:22;25.10;54.20
22456;DHT22;11395;53.204;6.502;2023-05-02T11:10:40;25.20;53.40
22456;DHT22;11395;53.204;6.502;2023-05-02T11:13:06;25.10;53.30
22456;DHT22;11395;53.204;6.502;2023-05-02T11:18:05;25.20;53.40
22456;DHT22;11395;53.204;6.502;2023-05-02T11:20:35;25.20;53.30
22456;DHT22;11395;53.204;6.502;2023-05-02T11:25:48;25.20;53.30
22456;DHT22;11395;53.204;6.502;2023-05-02T11:31:07;25.20;53.30
22456;DHT22;11395;53.204;6.502;2023-05-02T11:33:35;25.20;53.40
22456;DHT22;11395;53.204;6.502;2023-05-02T11:36:02;25.10;53.50
22456;DHT22;11395;53.204;6.502;2023-05-02T11:38:36;25.20;53.40
22456;DHT22;11395;53.204;6.502;2023-05-02T11:41:02;25.20;53.30
22456;DHT22;11395;53.204;6.502;2023-05-02T11:43:29;25.20;53.30
22456;DHT22;11395;53.204;6.502;2023-05-02T11:45:56;25.20;53.60
22456;DHT22;11395;53.204;6.502;2023-05-02T11:48:25;25.10;53.40
22456;DHT22;11395;53.204;6.502;2023-05-02T11:50:57;25.20;53.50
22456;DHT22;11395;53.204;6.502;2023-05-02T11:53:25;25.20;53.50
22456;DHT22;11395;53.204;6.502;2023-05-02T11:55:57;25.20;54.10
22456;DHT22;11395;53.204;6.502;2023-05-02T11:58:24;25.30;53.50
22456;DHT22;11395;53.204;6.502;2023-05-02T12:00:52;25.30;53.50
22456;DHT22;11395;53.204;6.502;2023-05-02T12:05:51;25.30;53.50
22456;DHT22;11395;53.204;6.502;2023-05-02T12:10:45;25.30;53.80
22456;DHT22;11395;53.204;6.502;2023-05-02T12:13:12;25.20;53.10
22456;DHT22;11395;53.204;6.502;2023-05-02T12:15:38;25.10;53.00
22456;DHT22;11395;53.204;6.502;2023-05-02T12:18:05;25.10;53.30
22456;DHT22;11395;53.204;6.502;2023-05-02T12:20:32;25.10;53.00
22456;DHT22;11395;53.204;6.502;2023-05-02T12:22:58;25.10;53.10
22456;DHT22;11395;53.204;6.502;2023-05-02T12:25:24;25.00;53.10
22456;DHT22;11395;53.204;6.502;2023-05-02T12:28:01;25.00;53.30
22456;DHT22;11395;53.204;6.502;2023-05-02T12:30:28;24.90;53.30
22456;DHT22;11395;53.204;6.502;2023-05-02T12:32:56;24.90;53.40
22456;DHT22;11395;53.204;6.502;2023-05-02T12:35:24;24.90;53.30
22456;DHT22;11395;53.204;6.502;2023-05-02T12:37:51;24.90;53.10
22456;DHT22;11395;53.204;6.502;2023-05-02T12:40:19;24.90;53.10
22456;DHT22;11395;53.204;6.502;2023-05-02T12:43:04;24.90;53.00
22456;DHT22;11395;53.204;6.502;2023-05-02T12:45:33;24.90;53.10
22456;DHT22;11395;53.204;6.502;2023-05-02T12:48:00;24.90;53.30
22456;DHT22;11395;53.204;6.502;2023-05-02T12:50:37;24.90;53.20
22456;DHT22;11395;53.204;6.502;2023-05-02T12:53:03;24.90;53.20
22456;DHT22;11395;53.204;6.502;2023-05-02T12:55:31;25.00;53.00
22456;DHT22;11395;53.204;6.502;2023-05-02T12:58:08;25.00;52.40
22456;DHT22;11395;53.204;6.502;2023-05-02T13:00:39;25.00;52.50
22456;DHT22;11395;53.204;6.502;2023-05-02T13:03:07;25.00;52.50
22456;DHT22;11395;53.204;6.502;2023-05-02T13:05:34;25.00;52.20
22456;DHT22;11395;53.204;6.502;2023-05-02T13:08:01;25.00;52.20
22456;DHT22;11395;53.204;6.502;2023-05-02T13:10:27;25.00;52.20
22456;DHT22;11395;53.204;6.502;2023-05-02T13:12:54;24.90;52.40
22456;DHT22;11395;53.204;6.502;2023-05-02T13:15:20;24.90;52.20
22456;DHT22;11395;53.204;6.502;2023-05-02T13:17:49;24.90;52.10
22456;DHT22;11395;53.204;6.502;2023-05-02T13:20:16;24.90;52.30
22456;DHT22;11395;53.204;6.502;2023-05-02T13:22:42;24.90;52.70
22456;DHT22;11395;53.204;6.502;2023-05-02T13:25:08;25.00;52.80
22456;DHT22;11395;53.204;6.502;2023-05-02T13:27:34;25.00;52.70
22456;DHT22;11395;53.204;6.502;2023-05-02T13:30:01;25.10;52.80
22456;DHT22;11395;53.204;6.502;2023-05-02T13:32:27;25.10;52.70
22456;DHT22;11395;53.204;6.502;2023-05-02T13:34:54;25.10;52.70
22456;DHT22;11395;53.204;6.502;2023-05-02T13:37:20;25.10;52.70
22456;DHT22;11395;53.204;6.502;2023-05-02T13:39:47;25.00;52.20
22456;DHT22;11395;53.204;6.502;2023-05-02T13:42:13;25.00;52.20
22456;DHT22;11395;53.204;6.502;2023-05-02T13:44:39;24.90;52.20
22456;DHT22;11395;53.204;6.502;2023-05-02T13:47:05;24.90;52.40
22456;DHT22;11395;53.204;6.502;2023-05-02T13:49:31;24.90;52.30
22456;DHT22;11395;53.204;6.502;2023-05-02T13:51:58;24.90;52.60
22456;DHT22;11395;53.204;6.502;2023-05-02T13:54:24;24.90;52.70
22456;DHT22;11395;53.204;6.502;2023-05-02T13:56:51;24.90;52.80
22456;DHT22;11395;53.204;6.502;2023-05-02T13:59:17;24.90;52.90
22456;DHT22;11395;53.204;6.502;2023-05-02T14:01:43;24.90;52.00
22456;DHT22;11395;53.204;6.502;2023-05-02T14:04:09;24.90;52.30
22456;DHT22;11395;53.204;6.502;2023-05-02T14:06:35;24.90;52.20
22456;DHT22;11395;53.204;6.502;2023-05-02T14:09:03;24.90;52.30
22456;DHT22;11395;53.204;6.502;2023-05-02T14:11:29;24.90;52.30
22456;DHT22;11395;53.204;6.502;2023-05-02T14:13:55;25.00;52.40
22456;DHT22;11395;53.204;6.502;2023-05-02T14:16:23;24.90;52.10
22456;DHT22;11395;53.204;6.502;2023-05-02T14:18:49;24.90;52.20
22456;DHT22;11395;53.204;6.502;2023-05-02T14:21:16;25.00;52.00
22456;DHT22;11395;53.204;6.502;2023-05-02T14:23:42;24.90;52.20
22456;DHT22;11395;53.204;6.502;2023-05-02T14:26:08;24.90;52.40
22456;DHT22;11395;53.204;6.502;2023-05-02T14:28:35;24.90;52.50
22456;DHT22;11395;53.204;6.502;2023-05-02T14:31:02;24.90;52.60
22456;DHT22;11395;53.204;6.502;2023-05-02T14:33:28;24.90;52.80
22456;DHT22;11395;53.204;6.502;2023-05-02T14:35:54;24.90;52.40
22456;DHT22;11395;53.204;6.502;2023-05-02T14:38:21;24.80;52.30
22456;DHT22;11395;53.204;6.502;2023-05-02T14:40:47;24.80;52.70
22456;DHT22;11395;53.204;6.502;2023-05-02T14:43:13;24.90;53.00
22456;DHT22;11395;53.204;6.502;2023-05-02T14:45:39;24.90;53.50
22456;DHT22;11395;53.204;6.502;2023-05-02T14:48:06;24.90;53.30
22456;DHT22;11395;53.204;6.502;2023-05-02T14:50:33;25.00;53.30
22456;DHT22;11395;53.204;6.502;2023-05-02T14:53:01;25.00;53.10
22456;DHT22;11395;53.204;6.502;2023-05-02T14:55:27;25.10;53.20
22456;DHT22;11395;53.204;6.502;2023-05-02T14:57:53;25.10;52.90
22456;DHT22;11395;53.204;6.502;2023-05-02T15:00:20;25.10;53.90
22456;DHT22;11395;53.204;6.502;2023-05-02T15:02:46;25.10;53.00
22456;DHT22;11395;53.204;6.502;2023-05-02T15:05:12;25.00;52.90
22456;DHT22;11395;53.204;6.502;2023-05-02T15:07:38;25.00;53.10
22456;DHT22;11395;53.204;6.502;2023-05-02T15:10:05;25.00;53.20
22456;DHT22;11395;53.204;6.502;2023-05-02T15:12:31;25.00;53.50
22456;DHT22;11395;53.204;6.502;2023-05-02T15:14:57;25.00;54.00
22456;DHT22;11395;53.204;6.502;2023-05-02T15:17:24;25.00;54.00
22456;DHT22;11395;53.204;6.502;2023-05-02T15:19:50;25.10;54.20
22456;DHT22;11395;53.204;6.502;2023-05-02T15:22:17;25.10;54.00
22456;DHT22;11395;53.204;6.502;2023-05-02T15:24:43;25.20;54.10
22456;DHT22;11395;53.204;6.502;2023-05-02T15:27:09;25.20;54.00
22456;DHT22;11395;53.204;6.502;2023-05-02T15:29:35;25.20;54.10
22456;DHT22;11395;53.204;6.502;2023-05-02T15:32:02;25.30;54.40
22456;DHT22;11395;53.204;6.502;2023-05-02T15:34:28;25.30;54.60
22456;DHT22;11395;53.204;6.502;2023-05-02T15:36:54;25.30;54.50
22456;DHT22;11395;53.204;6.502;2023-05-02T15:39:21;25.40;54.60
22456;DHT22;11395;53.204;6.502;2023-05-02T15:41:51;25.40;54.80
22456;DHT22;11395;53.204;6.502;2023-05-02T15:44:18;25.40;54.80
22456;DHT22;11395;53.204;6.502;2023-05-02T15:46:44;25.40;54.50
22456;DHT22;11395;53.204;6.502;2023-05-02T15:49:12;25.40;54.40
22456;DHT22;11395;53.204;6.502;2023-05-02T15:51:38;25.40;54.30
22456;DHT22;11395;53.204;6.502;2023-05-02T15:54:05;25.40;54.20
22456;DHT22;11395;53.204;6.502;2023-05-02T15:56:31;25.40;54.40
22456;DHT22;11395;53.204;6.502;2023-05-02T15:58:58;25.40;54.40
22456;DHT22;11395;53.204;6.502;2023-05-02T16:01:24;25.40;54.60
22456;DHT22;11395;53.204;6.502;2023-05-02T16:03:50;25.30;54.50
22456;DHT22;11395;53.204;6.502;2023-05-02T16:06:16;25.40;54.70
22456;DHT22;11395;53.204;6.502;2023-05-02T16:08:43;25.40;54.70
22456;DHT22;11395;53.204;6.502;2023-05-02T16:11:09;25.40;54.70
22456;DHT22;11395;53.204;6.502;2023-05-02T16:13:35;25.40;53.80
22456;DHT22;11395;53.204;6.502;2023-05-02T16:16:01;25.40;53.30
22456;DHT22;11395;53.204;6.502;2023-05-02T16:18:27;25.30;53.40